EDT,Max TemperatureF,Mean TemperatureF,Min TemperatureF,Max Dew PointF,MeanDew PointF,Min DewpointF,Max Humidity, Mean Humidity, Min Humidity, Max Sea Level PressureIn, Mean Sea Level PressureIn, Min Sea Level PressureIn, Max VisibilityMiles, Mean VisibilityMiles, Min VisibilityMiles, Max Wind SpeedMPH, Mean Wind SpeedMPH, Max Gust SpeedMPH,PrecipitationIn, CloudCover, Events, WindDirDegrees
2011-10-1,54,48,42,46,38,35,100,70,52,30.19,30.06,29.90,10,10,6,25,15,33,0.00,6,Rain,355
2011-10-2,61,52,42,40,37,32,82,61,36,30.17,30.11,30.02,10,10,10,17,8,25,0.00,3,,349
2011-10-3,63,56,48,52,47,38,86,74,60,30.20,30.12,30.06,10,10,10,13,6,21,0.00,7,Rain,358
2011-10-4,73,59,46,49,45,42,93,63,34,30.28,30.24,30.20,10,10,10,10,3,,0.00,0,,330
2011-10-5,73,60,48,54,49,45,93,69,37,30.30,30.27,30.24,10,10,6,9,1,,0.00,0,,70
2011-10-6,73,62,51,58,54,50,100,82,53,30.36,30.33,30.29,10,7,2,9,2,,0.00,0,,122
2011-10-7,77,62,48,59,53,48,100,86,50,30.43,30.38,30.33,10,5,0,7,1,,0.00,2,Fog,138
2011-10-8,79,66,54,59,55,52,97,73,42,30.43,30.38,30.34,10,8,2,9,3,,0.00,0,,179
2011-10-9,80,66,54,58,55,52,94,71,39,30.42,30.36,30.32,10,9,5,6,2,,0.00,0,,179
2011-10-10,75,64,55,60,55,53,93,76,50,30.32,30.26,30.17,10,8,3,7,2,,0.00,0,,121
2011-10-11,78,64,51,58,53,48,100,84,36,30.16,30.11,30.02,10,5,2,8,1,,0.00,0,,127
2011-10-12,63,60,57,58,57,55,100,94,75,30.00,29.87,29.74,10,6,3,12,4,18,0.17,6,Rain,89
2011-10-13,66,62,57,58,57,55,100,92,73,29.74,29.64,29.41,10,5,2,8,2,,0.02,7,Rain,160
2011-10-14,60,55,50,59,52,40,100,85,57,29.54,29.39,29.31,10,8,1,18,8,30,0.23,7,Rain,248
2011-10-15,57,52,46,43,38,34,89,65,44,29.81,29.61,29.51,10,10,7,25,16,41,0.00,6,Rain,264
2011-10-16,59,54,48,46,40,35,74,64,47,29.83,29.75,29.64,10,10,10,17,9,25,0.00,4,Rain,241
2011-10-17,61,52,45,39,35,28,71,53,32,29.81,29.74,29.68,10,10,10,21,13,31,0.00,0,,249
2011-10-18,55,48,42,47,39,34,96,72,49,29.84,29.81,29.78,10,10,6,8,5,,0.00,3,Rain,243
2011-10-19,51,49,48,49,47,45,100,94,86,29.79,29.52,29.19,10,5,2,21,12,33,0.00,8,Rain,37
2011-10-20,52,48,43,52,46,39,100,91,81,29.66,29.24,29.12,10,8,2,20,11,26,0.00,8,Rain,192
2011-10-21,48,46,44,41,38,34,87,75,63,30.10,29.93,29.69,10,10,10,13,9,20,0.00,8,,284
2011-10-22,57,46,36,41,37,33,89,70,45,30.13,30.09,30.06,10,10,9,9,5,,0.00,1,,237
2011-10-23,63,51,39,46,42,36,93,71,48,30.06,30.00,29.92,10,10,6,15,4,25,0.00,2,,200
2011-10-24,62,55,48,49,41,29,96,65,33,30.12,29.96,29.85,10,10,5,21,9,31,0.03,4,Rain,260
2011-10-25,61,52,44,49,42,37,83,72,51,30.17,30.05,29.85,10,10,6,9,5,16,0.13,5,Rain,162
2011-10-26,57,52,45,50,46,43,93,85,69,29.88,29.83,29.75,10,9,5,15,10,23,0.09,7,Rain,352
2011-10-27,46,42,37,43,39,35,96,87,66,30.14,29.94,29.86,10,9,2,14,7,16,0.09,7,Rain,9
2011-10-28,52,41,32,40,33,28,96,77,46,30.23,30.17,30.12,10,9,6,8,2,,0.00,1,,168
2011-10-29,48,42,35,40,36,33,96,84,63,30.14,30.08,30.04,10,8,4,10,4,,0.01,5,Rain,141
2011-10-30,52,42,32,37,34,30,100,80,50,30.25,30.17,30.11,10,6,1,14,2,18,0.00,2,,193
2011-10-31,51,48,45,43,39,38,87,75,61,30.19,30.11,30.06,10,10,9,12,7,17,0.00,8,Rain,177